sensor_id;sensor_type;location;lat;lon;timestamp;P1;durP1;ratioP1;P2;durP2;ratioP2
45043;SDS011;30784;48.490;9.688;2023-02-21T00:01:12;5.15;;;1.35;;
45043;SDS011;30784;48.490;9.688;2023-02-21T00:03:57;4.97;;;1.10;;
45043;SDS011;30784;48.490;9.688;2023-02-21T00:06:42;5.30;;;1.00;;
45043;SDS011;30784;48.490;9.688;2023-02-21T00:09:27;2.70;;;0.68;;
45043;SDS011;30784;48.490;9.688;2023-02-21T00:12:11;2.00;;;0.63;;
45043;SDS011;30784;48.490;9.688;2023-02-21T00:14:55;3.17;;;1.00;;
45043;SDS011;30784;48.490;9.688;2023-02-21T00:17:39;7.80;;;2.92;;
45043;SDS011;30784;48.490;9.688;2023-02-21T00:20:23;5.78;;;1.73;;
45043;SDS011;30784;48.490;9.688;2023-02-21T00:23:08;3.42;;;0.80;;
45043;SDS011;30784;48.490;9.688;2023-02-21T00:25:53;4.18;;;1.20;;
45043;SDS011;30784;48.490;9.688;2023-02-21T00:28:37;3.78;;;0.60;;
45043;SDS011;30784;48.490;9.688;2023-02-21T00:31:21;5.43;;;0.77;;
45043;SDS011;30784;48.490;9.688;2023-02-21T00:34:05;13.05;;;6.00;;
45043;SDS011;30784;48.490;9.688;2023-02-21T00:36:50;6.25;;;1.88;;
45043;SDS011;30784;48.490;9.688;2023-02-21T00:39:35;3.88;;;1.05;;
45043;SDS011;30784;48.490;9.688;2023-02-21T00:42:19;3.60;;;0.80;;
45043;SDS011;30784;48.490;9.688;2023-02-21T00:45:03;2.70;;;0.60;;
45043;SDS011;30784;48.490;9.688;2023-02-21T00:47:47;3.25;;;0.90;;
45043;SDS011;30784;48.490;9.688;2023-02-21T00:50:31;2.95;;;0.75;;
45043;SDS011;30784;48.490;9.688;2023-02-21T00:53:15;1.77;;;0.60;;
45043;SDS011;30784;48.490;9.688;2023-02-21T00:55:59;1.73;;;0.70;;
45043;SDS011;30784;48.490;9.688;2023-02-21T00:58:43;2.58;;;0.70;;
45043;SDS011;30784;48.490;9.688;2023-02-21T01:01:27;1.95;;;0.60;;
45043;SDS011;30784;48.490;9.688;2023-02-21T01:04:11;4.35;;;1.00;;
45043;SDS011;30784;48.490;9.688;2023-02-21T01:06:55;6.57;;;2.33;;
45043;SDS011;30784;48.490;9.688;2023-02-21T01:09:40;4.05;;;1.13;;
45043;SDS011;30784;48.490;9.688;2023-02-21T01:12:24;5.60;;;1.40;;
45043;SDS011;30784;48.490;9.688;2023-02-21T01:15:08;3.47;;;1.08;;
45043;SDS011;30784;48.490;9.688;2023-02-21T01:17:52;3.80;;;0.95;;
45043;SDS011;30784;48.490;9.688;2023-02-21T01:20:36;3.28;;;0.80;;
45043;SDS011;30784;48.490;9.688;2023-02-21T01:23:20;2.38;;;0.60;;
45043;SDS011;30784;48.490;9.688;2023-02-21T01:26:04;3.25;;;0.70;;
45043;SDS011;30784;48.490;9.688;2023-02-21T01:28:51;3.78;;;0.52;;
45043;SDS011;30784;48.490;9.688;2023-02-21T01:31:35;3.00;;;0.70;;
45043;SDS011;30784;48.490;9.688;2023-02-21T01:34:19;3.10;;;0.80;;
45043;SDS011;30784;48.490;9.688;2023-02-21T01:37:03;1.73;;;0.50;;
45043;SDS011;30784;48.490;9.688;2023-02-21T01:39:48;2.28;;;0.70;;
45043;SDS011;30784;48.490;9.688;2023-02-21T01:42:32;3.63;;;0.80;;
45043;SDS011;30784;48.490;9.688;2023-02-21T01:48:03;15.45;;;11.93;;
45043;SDS011;30784;48.490;9.688;2023-02-21T01:50:53;6.07;;;2.00;;
45043;SDS011;30784;48.490;9.688;2023-02-21T01:53:38;4.57;;;1.17;;
45043;SDS011;30784;48.490;9.688;2023-02-21T01:56:22;4.18;;;0.90;;
45043;SDS011;30784;48.490;9.688;2023-02-21T01:59:06;1.90;;;0.50;;
45043;SDS011;30784;48.490;9.688;2023-02-21T02:01:52;3.63;;;0.65;;
45043;SDS011;30784;48.490;9.688;2023-02-21T02:04:46;2.45;;;0.55;;
45043;SDS011;30784;48.490;9.688;2023-02-21T02:07:32;2.20;;;0.60;;
45043;SDS011;30784;48.490;9.688;2023-02-21T02:10:17;1.63;;;0.50;;
45043;SDS011;30784;48.490;9.688;2023-02-21T02:30:15;1.48;;;0.50;;
45043;SDS011;30784;48.490;9.688;2023-02-21T02:35:39;2.63;;;0.60;;
45043;SDS011;30784;48.490;9.688;2023-02-21T02:38:13;3.08;;;0.60;;
45043;SDS011;30784;48.490;9.688;2023-02-21T02:48:45;2.00;;;0.50;;
45043;SDS011;30784;48.490;9.688;2023-02-21T02:51:15;2.13;;;0.50;;
45043;SDS011;30784;48.490;9.688;2023-02-21T02:53:41;2.35;;;0.50;;
45043;SDS011;30784;48.490;9.688;2023-02-21T02:56:07;2.78;;;0.50;;
45043;SDS011;30784;48.490;9.688;2023-02-21T03:06:49;2.47;;;0.45;;
45043;SDS011;30784;48.490;9.688;2023-02-21T03:09:28;4.00;;;0.83;;
45043;SDS011;30784;48.490;9.688;2023-02-21T03:17:47;1.95;;;0.52;;
45043;SDS011;30784;48.490;9.688;2023-02-21T03:20:20;2.05;;;0.40;;
45043;SDS011;30784;48.490;9.688;2023-02-21T03:22:47;2.35;;;0.40;;
45043;SDS011;30784;48.490;9.688;2023-02-21T03:25:14;2.95;;;0.40;;
45043;SDS011;30784;48.490;9.688;2023-02-21T03:27:41;3.45;;;0.80;;
45043;SDS011;30784;48.490;9.688;2023-02-21T03:30:08;1.10;;;0.50;;
45043;SDS011;30784;48.490;9.688;2023-02-21T03:32:39;2.63;;;0.57;;
45043;SDS011;30784;48.490;9.688;2023-02-21T03:35:08;1.77;;;0.47;;
45043;SDS011;30784;48.490;9.688;2023-02-21T03:37:35;2.28;;;0.47;;
45043;SDS011;30784;48.490;9.688;2023-02-21T03:40:11;2.30;;;0.47;;
45043;SDS011;30784;48.490;9.688;2023-02-21T03:42:39;3.35;;;0.73;;
45043;SDS011;30784;48.490;9.688;2023-02-21T03:45:05;2.72;;;0.50;;
45043;SDS011;30784;48.490;9.688;2023-02-21T03:47:30;2.15;;;0.60;;
45043;SDS011;30784;48.490;9.688;2023-02-21T03:49:56;1.88;;;0.50;;
45043;SDS011;30784;48.490;9.688;2023-02-21T03:52:22;1.85;;;0.45;;
45043;SDS011;30784;48.490;9.688;2023-02-21T03:54:47;2.42;;;0.50;;
45043;SDS011;30784;48.490;9.688;2023-02-21T03:57:13;1.90;;;0.47;;
45043;SDS011;30784;48.490;9.688;2023-02-21T03:59:38;2.45;;;0.50;;
45043;SDS011;30784;48.490;9.688;2023-02-21T04:02:04;2.10;;;0.50;;
45043;SDS011;30784;48.490;9.688;2023-02-21T04:04:29;1.20;;;0.40;;
45043;SDS011;30784;48.490;9.688;2023-02-21T04:06:55;2.47;;;0.57;;
45043;SDS011;30784;48.490;9.688;2023-02-21T04:09:20;1.63;;;0.40;;
45043;SDS011;30784;48.490;9.688;2023-02-21T04:11:47;1.48;;;0.38;;
45043;SDS011;30784;48.490;9.688;2023-02-21T04:14:12;1.98;;;0.60;;
45043;SDS011;30784;48.490;9.688;2023-02-21T04:16:38;3.28;;;0.70;;
45043;SDS011;30784;48.490;9.688;2023-02-21T04:19:04;2.85;;;0.60;;
45043;SDS011;30784;48.490;9.688;2023-02-21T04:21:29;2.97;;;0.70;;
45043;SDS011;30784;48.490;9.688;2023-02-21T04:23:55;1.40;;;0.50;;
45043;SDS011;30784;48.490;9.688;2023-02-21T04:26:21;2.45;;;0.60;;
45043;SDS011;30784;48.490;9.688;2023-02-21T04:28:48;2.67;;;0.70;;
45043;SDS011;30784;48.490;9.688;2023-02-21T04:31:14;2.88;;;0.65;;
45043;SDS011;30784;48.490;9.688;2023-02-21T04:33:41;4.40;;;0.90;;
45043;SDS011;30784;48.490;9.688;2023-02-21T04:36:07;2.58;;;0.80;;
45043;SDS011;30784;48.490;9.688;2023-02-21T04:38:32;4.97;;;1.20;;
45043;SDS011;30784;48.490;9.688;2023-02-21T04:40:58;4.47;;;1.50;;
45043;SDS011;30784;48.490;9.688;2023-02-21T04:43:23;7.70;;;2.17;;
45043;SDS011;30784;48.490;9.688;2023-02-21T04:45:49;5.03;;;1.77;;
45043;SDS011;30784;48.490;9.688;2023-02-21T04:48:14;6.57;;;2.15;;
45043;SDS011;30784;48.490;9.688;2023-02-21T04:50:40;6.38;;;1.58;;
45043;SDS011;30784;48.490;9.688;2023-02-21T04:53:06;5.00;;;1.50;;
45043;SDS011;30784;48.490;9.688;2023-02-21T04:55:31;6.28;;;1.70;;
45043;SDS011;30784;48.490;9.688;2023-02-21T04:57:57;4.47;;;1.20;;
45043;SDS011;30784;48.490;9.688;2023-02-21T05:00:22;3.58;;;1.20;;
45043;SDS011;30784;48.490;9.688;2023-02-21T05:02:48;4.85;;;1.60;;
45043;SDS011;30784;48.490;9.688;2023-02-21T05:05:14;3.83;;;1.20;;
45043;SDS011;30784;48.490;9.688;2023-02-21T05:07:40;6.93;;;1.70;;
45043;SDS011;30784;48.490;9.688;2023-02-21T05:10:06;5.53;;;1.65;;
45043;SDS011;30784;48.490;9.688;2023-02-21T05:12:33;3.65;;;1.13;;
45043;SDS011;30784;48.490;9.688;2023-02-21T05:14:59;3.45;;;1.00;;
45043;SDS011;30784;48.490;9.688;2023-02-21T05:17:25;4.75;;;1.17;;
45043;SDS011;30784;48.490;9.688;2023-02-21T05:19:52;2.75;;;0.82;;
45043;SDS011;30784;48.490;9.688;2023-02-21T05:22:19;2.67;;;0.85;;
45043;SDS011;30784;48.490;9.688;2023-02-21T05:24:44;2.95;;;1.00;;
45043;SDS011;30784;48.490;9.688;2023-02-21T05:27:11;3.40;;;0.80;;
45043;SDS011;30784;48.490;9.688;2023-02-21T05:29:39;1.98;;;0.60;;
45043;SDS011;30784;48.490;9.688;2023-02-21T05:32:06;2.97;;;0.80;;
45043;SDS011;30784;48.490;9.688;2023-02-21T05:34:31;2.35;;;0.70;;
45043;SDS011;30784;48.490;9.688;2023-02-21T05:36:57;2.55;;;0.80;;
45043;SDS011;30784;48.490;9.688;2023-02-21T05:39:23;2.65;;;0.65;;
45043;SDS011;30784;48.490;9.688;2023-02-21T05:41:49;2.97;;;0.70;;
45043;SDS011;30784;48.490;9.688;2023-02-21T05:44:16;2.03;;;0.60;;
45043;SDS011;30784;48.490;9.688;2023-02-21T05:46:42;3.05;;;0.68;;
45043;SDS011;30784;48.490;9.688;2023-02-21T05:49:09;1.58;;;0.68;;
45043;SDS011;30784;48.490;9.688;2023-02-21T05:51:36;2.67;;;0.85;;
45043;SDS011;30784;48.490;9.688;2023-02-21T05:54:04;3.97;;;0.85;;
45043;SDS011;30784;48.490;9.688;2023-02-21T05:56:36;2.92;;;0.75;;
45043;SDS011;30784;48.490;9.688;2023-02-21T05:59:03;3.17;;;0.95;;
45043;SDS011;30784;48.490;9.688;2023-02-21T06:01:29;2.88;;;0.70;;
45043;SDS011;30784;48.490;9.688;2023-02-21T06:03:54;1.67;;;0.45;;
45043;SDS011;30784;48.490;9.688;2023-02-21T06:06:20;2.90;;;0.60;;
45043;SDS011;30784;48.490;9.688;2023-02-21T06:08:46;2.40;;;0.60;;
45043;SDS011;30784;48.490;9.688;2023-02-21T06:11:12;3.00;;;0.57;;
45043;SDS011;30784;48.490;9.688;2023-02-21T06:13:38;1.42;;;0.45;;
45043;SDS011;30784;48.490;9.688;2023-02-21T06:16:04;1.67;;;0.52;;
45043;SDS011;30784;48.490;9.688;2023-02-21T06:18:30;2.70;;;0.60;;
45043;SDS011;30784;48.490;9.688;2023-02-21T06:20:55;1.95;;;0.70;;
45043;SDS011;30784;48.490;9.688;2023-02-21T06:23:21;2.53;;;0.70;;
45043;SDS011;30784;48.490;9.688;2023-02-21T06:25:46;3.15;;;0.77;;
45043;SDS011;30784;48.490;9.688;2023-02-21T06:28:12;2.97;;;0.73;;
45043;SDS011;30784;48.490;9.688;2023-02-21T06:30:37;4.10;;;0.70;;
45043;SDS011;30784;48.490;9.688;2023-02-21T06:33:03;5.15;;;1.00;;
45043;SDS011;30784;48.490;9.688;2023-02-21T06:35:29;2.65;;;0.70;;
45043;SDS011;30784;48.490;9.688;2023-02-21T06:37:54;1.15;;;0.40;;
45043;SDS011;30784;48.490;9.688;2023-02-21T06:40:20;2.72;;;0.60;;
45043;SDS011;30784;48.490;9.688;2023-02-21T06:42:45;3.13;;;0.60;;
45043;SDS011;30784;48.490;9.688;2023-02-21T06:45:11;3.95;;;0.70;;
45043;SDS011;30784;48.490;9.688;2023-02-21T06:47:36;2.90;;;0.82;;
45043;SDS011;30784;48.490;9.688;2023-02-21T06:50:02;3.22;;;0.90;;
45043;SDS011;30784;48.490;9.688;2023-02-21T06:52:28;9.07;;;4.57;;
45043;SDS011;30784;48.490;9.688;2023-02-21T06:54:55;15.85;;;8.25;;
45043;SDS011;30784;48.490;9.688;2023-02-21T06:57:20;8.18;;;3.38;;
45043;SDS011;30784;48.490;9.688;2023-02-21T06:59:46;6.85;;;1.77;;
45043;SDS011;30784;48.490;9.688;2023-02-21T07:02:15;4.57;;;1.48;;
45043;SDS011;30784;48.490;9.688;2023-02-21T07:04:43;4.50;;;1.02;;
45043;SDS011;30784;48.490;9.688;2023-02-21T07:07:09;4.35;;;1.40;;
45043;SDS011;30784;48.490;9.688;2023-02-21T07:09:34;6.75;;;1.40;;
45043;SDS011;30784;48.490;9.688;2023-02-21T07:12:00;4.82;;;1.20;;
45043;SDS011;30784;48.490;9.688;2023-02-21T07:14:27;4.13;;;0.80;;
45043;SDS011;30784;48.490;9.688;2023-02-21T07:16:52;3.08;;;0.70;;
45043;SDS011;30784;48.490;9.688;2023-02-21T07:19:18;3.13;;;0.73;;
45043;SDS011;30784;48.490;9.688;2023-02-21T07:21:43;1.65;;;0.43;;
45043;SDS011;30784;48.490;9.688;2023-02-21T07:24:09;2.08;;;0.60;;
45043;SDS011;30784;48.490;9.688;2023-02-21T07:26:35;2.72;;;0.70;;
45043;SDS011;30784;48.490;9.688;2023-02-21T07:29:01;2.47;;;0.50;;
45043;SDS011;30784;48.490;9.688;2023-02-21T07:31:28;0.95;;;0.38;;
45043;SDS011;30784;48.490;9.688;2023-02-21T07:33:53;2.30;;;0.70;;
45043;SDS011;30784;48.490;9.688;2023-02-21T07:36:19;2.60;;;0.60;;
45043;SDS011;30784;48.490;9.688;2023-02-21T07:38:44;1.83;;;0.52;;
45043;SDS011;30784;48.490;9.688;2023-02-21T07:41:10;1.73;;;0.50;;
45043;SDS011;30784;48.490;9.688;2023-02-21T07:43:37;1.25;;;0.30;;
45043;SDS011;30784;48.490;9.688;2023-02-21T07:46:03;2.30;;;0.52;;
45043;SDS011;30784;48.490;9.688;2023-02-21T07:48:33;2.30;;;0.50;;
45043;SDS011;30784;48.490;9.688;2023-02-21T07:50:58;2.78;;;0.50;;
45043;SDS011;30784;48.490;9.688;2023-02-21T07:53:24;2.40;;;0.40;;
45043;SDS011;30784;48.490;9.688;2023-02-21T07:55:49;3.88;;;0.65;;
45043;SDS011;30784;48.490;9.688;2023-02-21T07:58:15;2.72;;;0.70;;
45043;SDS011;30784;48.490;9.688;2023-02-21T08:00:40;1.88;;;0.50;;
45043;SDS011;30784;48.490;9.688;2023-02-21T08:03:06;3.80;;;0.60;;
45043;SDS011;30784;48.490;9.688;2023-02-21T08:05:31;2.00;;;0.50;;
45043;SDS011;30784;48.490;9.688;2023-02-21T08:07:57;2.90;;;0.70;;
45043;SDS011;30784;48.490;9.688;2023-02-21T08:10:24;3.15;;;0.70;;
45043;SDS011;30784;48.490;9.688;2023-02-21T08:12:50;1.55;;;0.43;;
45043;SDS011;30784;48.490;9.688;2023-02-21T08:15:16;1.92;;;0.47;;
45043;SDS011;30784;48.490;9.688;2023-02-21T08:17:42;2.42;;;0.50;;
45043;SDS011;30784;48.490;9.688;2023-02-21T08:20:08;3.20;;;0.52;;
45043;SDS011;30784;48.490;9.688;2023-02-21T08:22:35;3.00;;;0.60;;
45043;SDS011;30784;48.490;9.688;2023-02-21T08:25:01;1.42;;;0.50;;
45043;SDS011;30784;48.490;9.688;2023-02-21T08:27:27;2.42;;;0.57;;
45043;SDS011;30784;48.490;9.688;2023-02-21T08:29:52;2.25;;;0.50;;
45043;SDS011;30784;48.490;9.688;2023-02-21T08:32:18;1.98;;;0.68;;
45043;SDS011;30784;48.490;9.688;2023-02-21T08:34:45;3.35;;;0.68;;
45043;SDS011;30784;48.490;9.688;2023-02-21T08:37:14;3.95;;;0.73;;
45043;SDS011;30784;48.490;9.688;2023-02-21T08:39:47;2.13;;;0.70;;
45043;SDS011;30784;48.490;9.688;2023-02-21T08:42:14;2.42;;;0.85;;
45043;SDS011;30784;48.490;9.688;2023-02-21T08:44:43;3.58;;;0.70;;
45043;SDS011;30784;48.490;9.688;2023-02-21T08:47:10;2.05;;;0.60;;
45043;SDS011;30784;48.490;9.688;2023-02-21T08:49:37;3.45;;;0.60;;
45043;SDS011;30784;48.490;9.688;2023-02-21T08:52:05;2.15;;;0.52;;
45043;SDS011;30784;48.490;9.688;2023-02-21T08:54:31;2.03;;;0.60;;
45043;SDS011;30784;48.490;9.688;2023-02-21T08:56:58;2.13;;;0.60;;
45043;SDS011;30784;48.490;9.688;2023-02-21T08:59:24;2.85;;;0.52;;
45043;SDS011;30784;48.490;9.688;2023-02-21T09:01:49;2.15;;;0.60;;
45043;SDS011;30784;48.490;9.688;2023-02-21T09:04:15;1.75;;;0.60;;
45043;SDS011;30784;48.490;9.688;2023-02-21T09:06:40;2.47;;;0.70;;
45043;SDS011;30784;48.490;9.688;2023-02-21T09:09:06;1.58;;;0.50;;
45043;SDS011;30784;48.490;9.688;2023-02-21T09:11:31;2.35;;;0.50;;
45043;SDS011;30784;48.490;9.688;2023-02-21T09:13:57;3.35;;;0.50;;
45043;SDS011;30784;48.490;9.688;2023-02-21T09:16:23;1.23;;;0.40;;
45043;SDS011;30784;48.490;9.688;2023-02-21T09:18:52;1.40;;;0.40;;
45043;SDS011;30784;48.490;9.688;2023-02-21T09:21:23;3.08;;;0.85;;
45043;SDS011;30784;48.490;9.688;2023-02-21T09:23:50;3.58;;;1.05;;
45043;SDS011;30784;48.490;9.688;2023-02-21T09:26:17;1.48;;;0.57;;
45043;SDS011;30784;48.490;9.688;2023-02-21T09:28:43;1.38;;;0.45;;
45043;SDS011;30784;48.490;9.688;2023-02-21T09:31:10;2.47;;;0.60;;
45043;SDS011;30784;48.490;9.688;2023-02-21T09:33:36;2.38;;;0.60;;
45043;SDS011;30784;48.490;9.688;2023-02-21T09:36:05;2.78;;;0.80;;
45043;SDS011;30784;48.490;9.688;2023-02-21T09:38:32;3.67;;;0.85;;
45043;SDS011;30784;48.490;9.688;2023-02-21T09:40:58;2.88;;;0.80;;
45043;SDS011;30784;48.490;9.688;2023-02-21T09:43:32;2.40;;;0.90;;
45043;SDS011;30784;48.490;9.688;2023-02-21T09:46:01;3.45;;;0.95;;
45043;SDS011;30784;48.490;9.688;2023-02-21T09:48:31;3.92;;;1.10;;
45043;SDS011;30784;48.490;9.688;2023-02-21T09:51:01;3.10;;;1.00;;
45043;SDS011;30784;48.490;9.688;2023-02-21T09:53:30;4.28;;;0.93;;
45043;SDS011;30784;48.490;9.688;2023-02-21T09:56:00;2.92;;;1.00;;
45043;SDS011;30784;48.490;9.688;2023-02-21T09:58:35;4.28;;;1.10;;
45043;SDS011;30784;48.490;9.688;2023-02-21T10:01:11;5.05;;;1.38;;
45043;SDS011;30784;48.490;9.688;2023-02-21T10:03:55;5.05;;;1.50;;
45043;SDS011;30784;48.490;9.688;2023-02-21T10:06:42;5.28;;;1.65;;
45043;SDS011;30784;48.490;9.688;2023-02-21T10:09:24;5.40;;;1.40;;
45043;SDS011;30784;48.490;9.688;2023-02-21T10:12:13;3.47;;;1.10;;
45043;SDS011;30784;48.490;9.688;2023-02-21T10:15:07;2.72;;;0.85;;
45043;SDS011;30784;48.490;9.688;2023-02-21T10:17:56;4.55;;;1.40;;
45043;SDS011;30784;48.490;9.688;2023-02-21T10:23:36;5.45;;;2.10;;
45043;SDS011;30784;48.490;9.688;2023-02-21T10:26:06;5.10;;;1.65;;
45043;SDS011;30784;48.490;9.688;2023-02-21T10:31:02;3.90;;;0.90;;
45043;SDS011;30784;48.490;9.688;2023-02-21T10:33:36;3.55;;;1.00;;
45043;SDS011;30784;48.490;9.688;2023-02-21T10:36:08;3.42;;;1.00;;
45043;SDS011;30784;48.490;9.688;2023-02-21T10:38:38;4.32;;;1.13;;
45043;SDS011;30784;48.490;9.688;2023-02-21T10:41:07;4.60;;;1.40;;
45043;SDS011;30784;48.490;9.688;2023-02-21T10:43:44;4.88;;;1.70;;
45043;SDS011;30784;48.490;9.688;2023-02-21T10:46:16;5.90;;;1.70;;
45043;SDS011;30784;48.490;9.688;2023-02-21T10:48:51;6.10;;;2.00;;
45043;SDS011;30784;48.490;9.688;2023-02-21T10:51:37;6.43;;;2.47;;
45043;SDS011;30784;48.490;9.688;2023-02-21T10:54:16;6.65;;;2.85;;
45043;SDS011;30784;48.490;9.688;2023-02-21T10:56:43;6.47;;;2.28;;
45043;SDS011;30784;48.490;9.688;2023-02-21T10:59:09;6.53;;;2.30;;
45043;SDS011;30784;48.490;9.688;2023-02-21T11:01:45;6.88;;;2.30;;
45043;SDS011;30784;48.490;9.688;2023-02-21T11:06:46;6.65;;;2.20;;
45043;SDS011;30784;48.490;9.688;2023-02-21T11:15:02;8.32;;;3.17;;
45043;SDS011;30784;48.490;9.688;2023-02-21T11:17:40;6.60;;;2.40;;
45043;SDS011;30784;48.490;9.688;2023-02-21T11:27:36;6.28;;;2.13;;
45043;SDS011;30784;48.490;9.688;2023-02-21T11:30:08;6.00;;;1.95;;
45043;SDS011;30784;48.490;9.688;2023-02-21T11:32:42;5.00;;;1.70;;
45043;SDS011;30784;48.490;9.688;2023-02-21T11:35:21;4.82;;;1.60;;
45043;SDS011;30784;48.490;9.688;2023-02-21T11:38:35;6.07;;;2.15;;
45043;SDS011;30784;48.490;9.688;2023-02-21T11:43:46;10.07;;;4.95;;
45043;SDS011;30784;48.490;9.688;2023-02-21T11:51:40;3.38;;;1.10;;
45043;SDS011;30784;48.490;9.688;2023-02-21T11:54:18;5.10;;;1.20;;
45043;SDS011;30784;48.490;9.688;2023-02-21T11:59:40;5.25;;;1.70;;
45043;SDS011;30784;48.490;9.688;2023-02-21T12:08:02;3.58;;;1.00;;
45043;SDS011;30784;48.490;9.688;2023-02-21T12:10:41;2.55;;;0.80;;
45043;SDS011;30784;48.490;9.688;2023-02-21T12:18:48;4.15;;;1.40;;
45043;SDS011;30784;48.490;9.688;2023-02-21T12:26:51;2.83;;;0.80;;
45043;SDS011;30784;48.490;9.688;2023-02-21T12:32:26;2.63;;;0.98;;
45043;SDS011;30784;48.490;9.688;2023-02-21T12:40:44;4.28;;;1.60;;
45043;SDS011;30784;48.490;9.688;2023-02-21T12:43:26;4.53;;;1.33;;
45043;SDS011;30784;48.490;9.688;2023-02-21T12:51:13;2.55;;;0.90;;
45043;SDS011;30784;48.490;9.688;2023-02-21T12:53:48;3.17;;;0.85;;
45043;SDS011;30784;48.490;9.688;2023-02-21T12:56:34;2.15;;;0.57;;
45043;SDS011;30784;48.490;9.688;2023-02-21T12:59:15;1.63;;;0.65;;
45043;SDS011;30784;48.490;9.688;2023-02-21T13:01:52;2.17;;;0.70;;
45043;SDS011;30784;48.490;9.688;2023-02-21T13:07:28;1.73;;;0.70;;
45043;SDS011;30784;48.490;9.688;2023-02-21T13:10:14;3.45;;;1.17;;
45043;SDS011;30784;48.490;9.688;2023-02-21T13:12:46;3.78;;;0.80;;
45043;SDS011;30784;48.490;9.688;2023-02-21T13:15:26;3.22;;;0.98;;
45043;SDS011;30784;48.490;9.688;2023-02-21T13:20:39;2.85;;;0.80;;
45043;SDS011;30784;48.490;9.688;2023-02-21T13:28:21;2.15;;;0.70;;
45043;SDS011;30784;48.490;9.688;2023-02-21T13:30:50;3.88;;;1.02;;
45043;SDS011;30784;48.490;9.688;2023-02-21T13:33:25;4.28;;;0.90;;
45043;SDS011;30784;48.490;9.688;2023-02-21T13:36:43;3.22;;;1.00;;
45043;SDS011;30784;48.490;9.688;2023-02-21T13:39:08;3.10;;;1.10;;
45043;SDS011;30784;48.490;9.688;2023-02-21T13:42:02;3.45;;;1.00;;
45043;SDS011;30784;48.490;9.688;2023-02-21T13:44:40;3.13;;;1.00;;
45043;SDS011;30784;48.490;9.688;2023-02-21T13:47:15;2.42;;;0.80;;
45043;SDS011;30784;48.490;9.688;2023-02-21T13:49:50;4.20;;;1.10;;
45043;SDS011;30784;48.490;9.688;2023-02-21T13:57:37;3.72;;;1.10;;
45043;SDS011;30784;48.490;9.688;2023-02-21T14:03:15;4.32;;;1.30;;
45043;SDS011;30784;48.490;9.688;2023-02-21T14:21:03;3.80;;;1.05;;
45043;SDS011;30784;48.490;9.688;2023-02-21T14:23:41;4.43;;;1.10;;
45043;SDS011;30784;48.490;9.688;2023-02-21T14:29:01;4.65;;;1.13;;
45043;SDS011;30784;48.490;9.688;2023-02-21T14:37:33;4.00;;;1.08;;
45043;SDS011;30784;48.490;9.688;2023-02-21T14:42:43;4.38;;;1.25;;
45043;SDS011;30784;48.490;9.688;2023-02-21T14:46:06;4.75;;;1.10;;
45043;SDS011;30784;48.490;9.688;2023-02-21T15:00:31;3.58;;;0.95;;
45043;SDS011;30784;48.490;9.688;2023-02-21T15:05:53;3.47;;;0.95;;
45043;SDS011;30784;48.490;9.688;2023-02-21T15:08:38;4.80;;;1.10;;
45043;SDS011;30784;48.490;9.688;2023-02-21T15:11:12;3.53;;;0.93;;
45043;SDS011;30784;48.490;9.688;2023-02-21T15:16:38;3.97;;;1.10;;
45043;SDS011;30784;48.490;9.688;2023-02-21T15:19:14;2.90;;;0.90;;
45043;SDS011;30784;48.490;9.688;2023-02-21T15:21:46;2.97;;;0.93;;
45043;SDS011;30784;48.490;9.688;2023-02-21T15:24:13;3.53;;;0.90;;
45043;SDS011;30784;48.490;9.688;2023-02-21T15:26:40;4.00;;;1.00;;
45043;SDS011;30784;48.490;9.688;2023-02-21T15:29:12;3.53;;;1.00;;
45043;SDS011;30784;48.490;9.688;2023-02-21T15:31:40;3.13;;;1.00;;
45043;SDS011;30784;48.490;9.688;2023-02-21T15:34:18;3.72;;;1.05;;
45043;SDS011;30784;48.490;9.688;2023-02-21T15:36:59;3.10;;;0.90;;
45043;SDS011;30784;48.490;9.688;2023-02-21T15:39:30;2.67;;;0.80;;
45043;SDS011;30784;48.490;9.688;2023-02-21T15:42:02;3.53;;;0.98;;
45043;SDS011;30784;48.490;9.688;2023-02-21T15:47:03;3.13;;;0.90;;
45043;SDS011;30784;48.490;9.688;2023-02-21T15:49:34;3.30;;;0.93;;
45043;SDS011;30784;48.490;9.688;2023-02-21T15:52:01;4.32;;;1.33;;
45043;SDS011;30784;48.490;9.688;2023-02-21T15:54:31;5.85;;;2.30;;
45043;SDS011;30784;48.490;9.688;2023-02-21T15:56:59;5.72;;;1.52;;
45043;SDS011;30784;48.490;9.688;2023-02-21T15:59:28;4.90;;;1.70;;
45043;SDS011;30784;48.490;9.688;2023-02-21T16:04:36;4.72;;;1.40;;
45043;SDS011;30784;48.490;9.688;2023-02-21T16:07:04;4.40;;;1.50;;
45043;SDS011;30784;48.490;9.688;2023-02-21T16:09:31;4.82;;;1.52;;
45043;SDS011;30784;48.490;9.688;2023-02-21T16:12:23;4.75;;;1.80;;
45043;SDS011;30784;48.490;9.688;2023-02-21T16:17:42;4.47;;;1.52;;
45043;SDS011;30784;48.490;9.688;2023-02-21T16:22:38;6.95;;;3.13;;
45043;SDS011;30784;48.490;9.688;2023-02-21T16:27:36;6.70;;;2.88;;
45043;SDS011;30784;48.490;9.688;2023-02-21T16:30:09;7.20;;;3.75;;
45043;SDS011;30784;48.490;9.688;2023-02-21T16:32:43;6.53;;;3.33;;
45043;SDS011;30784;48.490;9.688;2023-02-21T16:35:14;5.95;;;2.00;;
45043;SDS011;30784;48.490;9.688;2023-02-21T16:37:44;7.75;;;3.40;;
45043;SDS011;30784;48.490;9.688;2023-02-21T16:40:11;7.40;;;2.10;;
45043;SDS011;30784;48.490;9.688;2023-02-21T16:42:46;15.90;;;7.00;;
45043;SDS011;30784;48.490;9.688;2023-02-21T16:45:12;14.63;;;6.50;;
45043;SDS011;30784;48.490;9.688;2023-02-21T16:47:37;11.50;;;5.22;;
45043;SDS011;30784;48.490;9.688;2023-02-21T16:50:03;8.38;;;3.83;;
45043;SDS011;30784;48.490;9.688;2023-02-21T16:52:29;10.68;;;4.70;;
45043;SDS011;30784;48.490;9.688;2023-02-21T16:54:54;8.85;;;4.50;;
45043;SDS011;30784;48.490;9.688;2023-02-21T16:57:20;10.70;;;5.13;;
45043;SDS011;30784;48.490;9.688;2023-02-21T16:59:47;12.00;;;5.10;;
45043;SDS011;30784;48.490;9.688;2023-02-21T17:02:12;11.73;;;4.82;;
45043;SDS011;30784;48.490;9.688;2023-02-21T17:04:39;11.43;;;5.50;;
45043;SDS011;30784;48.490;9.688;2023-02-21T17:07:04;13.75;;;6.93;;
45043;SDS011;30784;48.490;9.688;2023-02-21T17:09:33;12.15;;;6.32;;
45043;SDS011;30784;48.490;9.688;2023-02-21T17:12:03;11.35;;;5.60;;
45043;SDS011;30784;48.490;9.688;2023-02-21T17:14:32;9.85;;;4.68;;
45043;SDS011;30784;48.490;9.688;2023-02-21T17:16:58;8.90;;;4.10;;
45043;SDS011;30784;48.490;9.688;2023-02-21T17:19:23;7.72;;;3.17;;
45043;SDS011;30784;48.490;9.688;2023-02-21T17:21:49;10.00;;;4.25;;
45043;SDS011;30784;48.490;9.688;2023-02-21T17:24:16;12.75;;;7.50;;
45043;SDS011;30784;48.490;9.688;2023-02-21T17:26:42;13.27;;;7.47;;
45043;SDS011;30784;48.490;9.688;2023-02-21T17:29:08;11.63;;;6.07;;
45043;SDS011;30784;48.490;9.688;2023-02-21T17:31:34;10.70;;;5.07;;
45043;SDS011;30784;48.490;9.688;2023-02-21T17:34:00;10.75;;;5.93;;
45043;SDS011;30784;48.490;9.688;2023-02-21T17:36:26;23.75;;;12.77;;
45043;SDS011;30784;48.490;9.688;2023-02-21T17:38:52;18.13;;;9.25;;
45043;SDS011;30784;48.490;9.688;2023-02-21T17:41:19;15.05;;;8.07;;
45043;SDS011;30784;48.490;9.688;2023-02-21T17:43:45;14.38;;;6.90;;
45043;SDS011;30784;48.490;9.688;2023-02-21T17:46:12;12.93;;;6.15;;
45043;SDS011;30784;48.490;9.688;2023-02-21T17:48:40;12.75;;;6.05;;
45043;SDS011;30784;48.490;9.688;2023-02-21T17:51:06;11.32;;;5.50;;
45043;SDS011;30784;48.490;9.688;2023-02-21T17:53:32;11.50;;;5.57;;
45043;SDS011;30784;48.490;9.688;2023-02-21T17:55:58;12.07;;;5.40;;
45043;SDS011;30784;48.490;9.688;2023-02-21T17:58:27;9.40;;;5.18;;
45043;SDS011;30784;48.490;9.688;2023-02-21T18:00:56;9.43;;;4.75;;
45043;SDS011;30784;48.490;9.688;2023-02-21T18:03:22;10.13;;;4.97;;
45043;SDS011;30784;48.490;9.688;2023-02-21T18:05:48;9.07;;;4.88;;
45043;SDS011;30784;48.490;9.688;2023-02-21T18:08:17;9.60;;;4.57;;
45043;SDS011;30784;48.490;9.688;2023-02-21T18:10:43;10.80;;;5.07;;
45043;SDS011;30784;48.490;9.688;2023-02-21T18:13:14;12.50;;;6.43;;
45043;SDS011;30784;48.490;9.688;2023-02-21T18:15:49;15.43;;;7.72;;